Time;durP1;ratioP1;P1;durP2;ratioP2;P2;SDS_P1;SDS_P2;PMS_P1;PMS_P2;Temp;Humidity;BMP_temperature;BMP_pressure;BME280_temperature;BME280_humidity;BME280_pressure;Samples;Min_cycle;Max_cycle;Signal;HPM_P1;HPM_P2
2022/11/07 00:02:11;;;;;;;12.63;6.88;;;10.20;99.90;;;;;;4969923;28;20038;-74
2022/11/07 00:04:37;;;;;;;16.15;7.45;;;10.20;99.90;;;;;;4984215;28;20053;-73
2022/11/07 00:07:04;;;;;;;16.10;6.38;;;10.30;99.90;;;;;;4953247;28;20517;-73
2022/11/07 00:09:30;;;;;;;10.20;4.88;;;10.20;99.90;;;;;;4921298;28;20043;-72
2022/11/07 00:11:55;;;;;;;13.88;6.40;;;10.20;99.90;;;;;;4966061;28;20047;-73
2022/11/07 00:14:21;;;;;;;23.08;8.20;;;10.40;99.90;;;;;;4964666;28;20055;-72
2022/11/07 00:16:48;;;;;;;11.88;7.25;;;10.30;99.90;;;;;;4943448;29;20131;-72
2022/11/07 00:19:18;;;;;;;17.30;7.38;;;10.20;99.90;;;;;;4928621;29;20044;-72
2022/11/07 00:21:45;;;;;;;21.15;6.85;;;10.30;99.90;;;;;;4929587;29;20083;-74
2022/11/07 00:24:11;;;;;;;9.05;5.93;;;10.20;99.90;;;;;;4921207;29;20082;-74
2022/11/07 00:26:37;;;;;;;10.80;6.32;;;10.20;99.90;;;;;;4961341;28;20052;-74
2022/11/07 00:29:03;;;;;;;14.73;7.10;;;10.30;99.90;;;;;;4932117;29;20098;-74
2022/11/07 00:31:29;;;;;;;11.52;6.45;;;10.30;99.90;;;;;;4912312;29;20392;-73
2022/11/07 00:33:55;;;;;;;18.05;8.43;;;10.20;99.90;;;;;;4931405;29;20052;-73
2022/11/07 00:36:24;;;;;;;10.38;6.50;;;10.30;99.90;;;;;;4914040;29;20067;-73
2022/11/07 00:38:50;;;;;;;15.18;8.18;;;10.30;99.90;;;;;;4960632;28;20376;-74
2022/11/07 00:41:16;;;;;;;17.77;8.02;;;10.30;99.90;;;;;;4962000;28;20059;-73
2022/11/07 00:43:41;;;;;;;13.90;6.63;;;10.40;99.90;;;;;;4931784;29;20619;-74
2022/11/07 00:46:09;;;;;;;15.10;7.53;;;10.40;99.90;;;;;;4930135;29;20044;-73
2022/11/07 00:48:35;;;;;;;16.90;6.88;;;10.40;99.90;;;;;;4932134;29;20042;-74
2022/11/07 00:51:25;;;;;;;14.27;7.40;;;10.40;99.90;;;;;;4931026;29;20050;-73
2022/11/07 00:53:50;;;;;;;13.57;7.33;;;10.50;99.90;;;;;;4916828;29;20059;-73
2022/11/07 00:56:19;;;;;;;16.52;8.15;;;10.30;99.90;;;;;;4929409;29;20106;-74
2022/11/07 00:58:45;;;;;;;15.57;6.72;;;10.40;99.90;;;;;;4945207;29;20043;-73
2022/11/07 01:01:18;;;;;;;14.35;5.93;;;10.30;99.90;;;;;;4930186;29;20034;-74
2022/11/07 01:06:31;;;;;;;17.52;6.32;;;10.40;99.90;;;;;;4912438;29;20060;-74
2022/11/07 01:08:57;;;;;;;12.90;5.97;;;10.50;99.90;;;;;;4928727;29;20063;-73
2022/11/07 01:11:27;;;;;;;10.88;5.05;;;10.50;99.90;;;;;;4930561;29;20055;-73
2022/11/07 01:14:00;;;;;;;28.52;6.22;;;10.40;99.90;;;;;;4960920;28;20086;-74
2022/11/07 01:16:27;;;;;;;15.15;6.57;;;10.60;99.90;;;;;;4928453;28;20102;-74
2022/11/07 01:18:53;;;;;;;7.82;5.50;;;10.40;99.90;;;;;;4928711;29;20046;-72
2022/11/07 01:21:19;;;;;;;13.43;5.82;;;10.50;99.90;;;;;;4929862;29;20047;-74
2022/11/07 01:23:44;;;;;;;8.85;5.28;;;10.30;99.90;;;;;;4960377;28;20067;-73
2022/11/07 01:26:12;;;;;;;13.77;6.30;;;10.30;99.90;;;;;;4933846;29;20040;-74
2022/11/07 01:28:38;;;;;;;14.75;8.02;;;10.40;99.90;;;;;;4928356;29;20040;-74
2022/11/07 01:31:07;;;;;;;16.73;6.10;;;10.20;99.90;;;;;;4930718;29;20456;-73
2022/11/07 01:33:33;;;;;;;13.07;6.25;;;10.50;99.90;;;;;;4945178;29;20118;-72
2022/11/07 01:36:00;;;;;;;18.17;6.43;;;10.30;99.90;;;;;;4927871;29;20058;-72
2022/11/07 01:38:26;;;;;;;11.88;5.28;;;10.60;99.90;;;;;;4927919;29;20047;-73
2022/11/07 01:43:48;;;;;;;14.40;5.93;;;10.40;99.90;;;;;;4926246;29;20098;-73
2022/11/07 01:46:15;;;;;;;16.48;6.45;;;10.50;99.90;;;;;;4910596;29;20135;-73
2022/11/07 01:48:48;;;;;;;17.35;6.43;;;10.50;99.90;;;;;;4925181;29;20162;-74
2022/11/07 01:51:15;;;;;;;13.65;6.32;;;10.40;99.90;;;;;;4922735;29;20524;-74
2022/11/07 01:53:41;;;;;;;11.07;6.00;;;10.50;99.90;;;;;;4926026;29;20052;-74
2022/11/07 01:56:12;;;;;;;15.35;6.20;;;10.40;99.90;;;;;;4928267;29;20131;-75
2022/11/07 01:58:37;;;;;;;8.50;5.00;;;10.40;99.90;;;;;;4929182;29;20398;-74
2022/11/07 02:01:04;;;;;;;16.27;7.63;;;10.40;99.90;;;;;;4963681;28;20056;-74
2022/11/07 02:03:29;;;;;;;13.05;4.95;;;10.50;99.90;;;;;;5008075;23;20066;-74
2022/11/07 02:06:01;;;;;;;17.92;7.45;;;10.60;99.90;;;;;;4946906;28;20098;-74
2022/11/07 02:08:29;;;;;;;9.48;4.90;;;10.50;99.90;;;;;;4952336;28;20039;-74
2022/11/07 02:10:58;;;;;;;13.18;6.25;;;10.50;99.90;;;;;;4948407;29;20102;-74
2022/11/07 02:13:29;;;;;;;18.60;5.53;;;10.50;99.90;;;;;;4926044;29;20047;-74
2022/11/07 02:15:57;;;;;;;19.67;5.40;;;10.60;99.90;;;;;;4952190;29;20091;-73
2022/11/07 02:18:26;;;;;;;8.43;3.80;;;10.80;99.90;;;;;;4934766;29;20050;-73
2022/11/07 02:20:53;;;;;;;29.25;4.75;;;10.60;99.90;;;;;;4965204;28;20051;-72
2022/11/07 02:23:29;;;;;;;8.02;3.25;;;10.50;99.90;;;;;;4952023;28;20138;-73
2022/11/07 02:25:54;;;;;;;12.95;4.78;;;10.50;99.90;;;;;;4971240;28;20448;-73
2022/11/07 02:28:24;;;;;;;12.90;4.28;;;10.50;99.90;;;;;;4955794;28;20126;-73
2022/11/07 02:30:50;;;;;;;12.40;3.83;;;10.60;99.90;;;;;;4952579;29;20098;-73
2022/11/07 02:33:20;;;;;;;9.13;3.95;;;10.50;99.90;;;;;;4965559;28;20040;-73
2022/11/07 02:35:49;;;;;;;21.38;6.13;;;10.60;99.90;;;;;;4934269;29;20051;-73
2022/11/07 02:38:25;;;;;;;13.27;4.78;;;10.60;99.90;;;;;;4935016;29;20047;-73
2022/11/07 02:40:57;;;;;;;12.50;4.25;;;10.70;99.90;;;;;;4953291;28;20049;-73
2022/11/07 02:43:26;;;;;;;11.93;3.97;;;10.50;99.90;;;;;;4919826;29;20071;-73
2022/11/07 02:45:54;;;;;;;14.20;4.25;;;10.70;99.90;;;;;;4950265;28;20424;-74
2022/11/07 02:48:20;;;;;;;17.30;4.60;;;10.70;99.90;;;;;;4926772;29;20130;-75
2022/11/07 02:50:45;;;;;;;8.13;2.90;;;10.50;99.90;;;;;;4951452;29;20130;-74
2022/11/07 02:53:11;;;;;;;7.53;3.35;;;10.60;99.90;;;;;;4951293;28;20437;-74
2022/11/07 02:55:37;;;;;;;9.45;3.53;;;10.60;99.90;;;;;;4949289;28;20546;-73
2022/11/07 02:58:03;;;;;;;7.60;3.08;;;10.60;99.90;;;;;;4952237;28;20035;-74
2022/11/07 03:00:28;;;;;;;11.85;3.45;;;10.50;99.90;;;;;;4950227;29;20126;-73
2022/11/07 03:02:54;;;;;;;7.00;3.40;;;10.50;99.90;;;;;;4950991;28;20066;-73
2022/11/07 03:05:20;;;;;;;13.18;4.60;;;10.50;99.90;;;;;;4949807;28;20146;-75
2022/11/07 03:07:47;;;;;;;16.48;4.57;;;10.40;99.90;;;;;;4965955;28;20058;-73
2022/11/07 03:10:15;;;;;;;13.57;3.38;;;10.60;99.90;;;;;;4932639;29;20097;-73
2022/11/07 03:12:40;;;;;;;8.15;3.05;;;10.60;99.90;;;;;;4952272;28;20038;-73
2022/11/07 03:15:08;;;;;;;25.33;4.57;;;10.40;99.90;;;;;;4955515;28;20097;-73
2022/11/07 03:17:34;;;;;;;9.88;3.45;;;10.40;99.90;;;;;;4949060;28;20047;-74
2022/11/07 03:20:00;;;;;;;13.88;3.33;;;10.50;99.90;;;;;;4947480;28;20493;-75
2022/11/07 03:22:26;;;;;;;11.15;3.28;;;10.30;99.90;;;;;;4951021;29;20050;-74
2022/11/07 03:24:52;;;;;;;7.43;2.65;;;10.40;99.90;;;;;;4950124;29;20050;-72
2022/11/07 03:27:18;;;;;;;14.75;3.17;;;10.60;99.90;;;;;;4966279;28;20039;-74
2022/11/07 03:29:44;;;;;;;9.18;2.58;;;10.50;99.90;;;;;;4962208;28;20502;-73
2022/11/07 03:32:09;;;;;;;11.57;4.32;;;10.60;99.90;;;;;;4935801;28;20043;-73
2022/11/07 03:34:36;;;;;;;16.67;4.28;;;10.30;99.90;;;;;;4949276;28;20047;-74
2022/11/07 03:37:02;;;;;;;13.07;3.38;;;10.40;99.90;;;;;;4951505;28;20450;-74
2022/11/07 03:39:28;;;;;;;11.55;2.40;;;10.40;99.90;;;;;;4950430;28;20402;-74
2022/11/07 03:41:54;;;;;;;12.90;2.78;;;10.30;99.90;;;;;;4933507;29;20051;-74
2022/11/07 03:44:19;;;;;;;10.52;2.88;;;10.40;99.90;;;;;;4935371;29;20463;-74
2022/11/07 03:46:45;;;;;;;8.63;3.00;;;10.50;99.90;;;;;;4964279;28;20559;-74
2022/11/07 03:49:10;;;;;;;12.15;3.75;;;10.50;99.90;;;;;;4965775;28;20143;-74
2022/11/07 03:51:36;;;;;;;14.13;3.55;;;10.60;99.90;;;;;;4964880;28;20130;-74
2022/11/07 03:54:02;;;;;;;18.67;4.70;;;10.50;99.90;;;;;;4955564;28;20594;-74
2022/11/07 03:56:27;;;;;;;21.48;3.90;;;10.30;99.90;;;;;;4960310;28;20054;-74
2022/11/07 03:58:53;;;;;;;16.65;4.18;;;10.40;99.90;;;;;;4934088;29;20046;-73
2022/11/07 04:01:18;;;;;;;17.17;3.70;;;10.60;99.90;;;;;;4952491;28;20082;-73
2022/11/07 04:03:44;;;;;;;11.38;3.60;;;10.60;99.90;;;;;;4936766;29;20046;-73
2022/11/07 04:06:10;;;;;;;14.75;4.47;;;10.60;99.90;;;;;;4926560;29;20036;-73
2022/11/07 04:08:36;;;;;;;19.50;4.45;;;10.40;99.90;;;;;;4930402;29;20586;-72
2022/11/07 04:11:01;;;;;;;13.73;3.72;;;10.40;99.90;;;;;;4930437;29;20522;-72
2022/11/07 04:18:56;;;;;;;11.73;2.95;;;10.50;99.90;;;;;;4930920;29;20055;-74
2022/11/07 04:21:23;;;;;;;13.77;4.47;;;10.50;99.90;;;;;;4930216;29;20052;-74
2022/11/07 04:23:48;;;;;;;14.75;3.25;;;10.60;99.90;;;;;;4930015;29;20044;-74
2022/11/07 04:28:58;;;;;;;14.82;3.67;;;10.50;99.90;;;;;;4930313;29;20058;-73
2022/11/07 04:31:23;;;;;;;14.27;2.92;;;10.50;99.90;;;;;;4928314;29;20454;-74
2022/11/07 04:33:50;;;;;;;14.77;3.25;;;10.50;99.90;;;;;;4944336;28;20087;-74
2022/11/07 04:36:16;;;;;;;9.10;2.72;;;10.70;99.90;;;;;;4929890;29;20436;-73
2022/11/07 04:38:42;;;;;;;13.40;3.40;;;10.70;99.90;;;;;;4929245;29;20114;-74
2022/11/07 04:41:21;;;;;;;15.02;4.15;;;10.50;99.90;;;;;;4929173;29;20431;-73
2022/11/07 04:43:47;;;;;;;13.00;3.80;;;10.50;99.90;;;;;;4928311;29;20052;-74
2022/11/07 04:46:15;;;;;;;14.15;3.50;;;10.50;99.90;;;;;;4933154;29;20068;-73
2022/11/07 04:48:40;;;;;;;15.18;4.35;;;10.40;99.90;;;;;;4933982;29;20402;-73
2022/11/07 04:51:15;;;;;;;16.10;3.95;;;10.40;99.90;;;;;;4929518;29;20043;-73
2022/11/07 04:53:41;;;;;;;9.18;3.30;;;10.40;99.90;;;;;;4913596;29;20048;-72
2022/11/07 04:56:06;;;;;;;11.02;4.50;;;10.60;99.90;;;;;;4926376;29;20047;-74
2022/11/07 04:58:32;;;;;;;18.15;5.32;;;10.30;99.90;;;;;;4934107;29;20032;-72
2022/11/07 05:00:58;;;;;;;11.40;4.20;;;10.60;99.90;;;;;;4942957;29;20077;-74
2022/11/07 05:03:23;;;;;;;11.80;2.50;;;10.40;99.90;;;;;;4923443;29;20114;-73
2022/11/07 05:05:49;;;;;;;17.65;4.60;;;10.30;99.90;;;;;;4911296;29;20056;-73
2022/11/07 05:08:14;;;;;;;29.70;5.35;;;10.30;99.90;;;;;;4912343;29;20468;-73
2022/11/07 05:10:40;;;;;;;18.23;5.45;;;10.20;99.90;;;;;;4910739;29;20494;-73
2022/11/07 05:13:06;;;;;;;16.58;4.85;;;10.20;99.90;;;;;;4910007;29;20036;-73
2022/11/07 05:15:32;;;;;;;13.27;3.22;;;10.20;99.90;;;;;;4940195;28;20419;-72
2022/11/07 05:17:57;;;;;;;12.52;4.50;;;10.30;99.90;;;;;;4941235;29;20048;-76
2022/11/07 05:20:27;;;;;;;13.13;4.95;;;10.30;99.90;;;;;;4911384;29;20534;-72
2022/11/07 05:25:49;;;;;;;11.52;3.50;;;10.40;99.90;;;;;;4941686;28;20072;-73
2022/11/07 05:28:32;;;;;;;16.02;3.75;;;10.40;99.90;;;;;;4941995;28;20144;-73
2022/11/07 05:31:01;;;;;;;32.08;16.90;;;10.30;99.90;;;;;;4920345;29;20073;-73
2022/11/07 05:33:27;;;;;;;13.65;5.13;;;10.50;99.90;;;;;;4911675;29;20135;-73
2022/11/07 05:35:53;;;;;;;23.75;5.15;;;10.20;99.90;;;;;;4909470;29;20134;-73
2022/11/07 05:38:19;;;;;;;13.32;4.13;;;10.30;99.90;;;;;;4910037;29;20988;-73
2022/11/07 05:40:44;;;;;;;15.60;5.43;;;10.40;99.90;;;;;;4910578;29;20523;-73
2022/11/07 05:43:12;;;;;;;8.57;3.72;;;10.40;99.90;;;;;;4941234;28;20040;-73
2022/11/07 05:45:39;;;;;;;8.10;3.45;;;10.20;99.90;;;;;;4912884;29;20044;-73
2022/11/07 05:48:08;;;;;;;11.48;3.95;;;10.40;99.90;;;;;;4923992;29;20048;-73
2022/11/07 05:50:34;;;;;;;10.70;3.55;;;10.20;99.90;;;;;;4942635;28;20052;-74
2022/11/07 05:53:01;;;;;;;14.52;4.63;;;10.20;99.90;;;;;;4911128;29;20062;-75
2022/11/07 05:55:27;;;;;;;10.90;3.80;;;10.30;99.90;;;;;;4941935;28;20151;-76
2022/11/07 05:57:52;;;;;;;12.02;3.33;;;10.20;99.90;;;;;;4895298;29;20143;-73
2022/11/07 06:00:19;;;;;;;11.80;3.97;;;10.30;99.90;;;;;;4941580;28;20099;-72
2022/11/07 06:02:52;;;;;;;9.93;3.83;;;10.30;99.90;;;;;;4913141;29;20503;-73
2022/11/07 06:05:17;;;;;;;19.13;4.28;;;10.60;99.90;;;;;;4949513;28;20058;-73
2022/11/07 06:07:43;;;;;;;10.60;4.22;;;10.30;99.90;;;;;;4932524;29;20039;-74
2022/11/07 06:10:09;;;;;;;20.80;5.45;;;10.40;99.90;;;;;;4955758;29;20074;-74
2022/11/07 06:12:35;;;;;;;16.40;4.32;;;10.30;99.90;;;;;;4953544;28;20058;-73
2022/11/07 06:15:00;;;;;;;17.05;4.47;;;10.60;99.90;;;;;;4955850;28;20039;-74
2022/11/07 06:17:26;;;;;;;11.85;4.40;;;10.20;99.90;;;;;;4954560;28;20055;-73
2022/11/07 06:19:51;;;;;;;21.33;5.22;;;10.30;99.90;;;;;;4935634;29;20048;-74
2022/11/07 06:22:17;;;;;;;19.05;5.20;;;10.40;99.90;;;;;;4949695;29;20039;-74
2022/11/07 06:24:43;;;;;;;22.38;5.45;;;10.50;99.90;;;;;;4950690;28;20101;-71
2022/11/07 06:27:08;;;;;;;22.83;4.28;;;10.30;99.90;;;;;;4966756;28;20406;-72
2022/11/07 06:29:34;;;;;;;11.93;4.15;;;10.40;99.90;;;;;;4952430;29;20078;-74
2022/11/07 06:31:59;;;;;;;11.10;3.92;;;10.50;99.90;;;;;;4931734;29;20069;-72
2022/11/07 06:34:25;;;;;;;16.20;5.30;;;10.20;99.90;;;;;;4949680;28;20393;-72
2022/11/07 06:36:55;;;;;;;11.55;4.00;;;10.30;99.90;;;;;;4954278;28;20051;-73
2022/11/07 06:39:21;;;;;;;9.40;3.13;;;10.10;99.90;;;;;;4967033;28;20392;-73
2022/11/07 06:41:50;;;;;;;13.50;3.90;;;10.10;99.90;;;;;;4932022;29;20088;-73
2022/11/07 06:44:16;;;;;;;15.23;3.58;;;10.30;99.90;;;;;;4932543;28;20510;-72
2022/11/07 06:46:42;;;;;;;17.17;3.50;;;10.30;99.90;;;;;;4959804;28;20035;-73
2022/11/07 06:49:07;;;;;;;16.40;4.68;;;10.20;99.90;;;;;;4950167;28;20422;-72
2022/11/07 06:51:33;;;;;;;9.75;4.00;;;10.20;99.90;;;;;;4966903;28;20050;-72
2022/11/07 06:53:59;;;;;;;13.55;4.70;;;10.40;99.90;;;;;;4959497;28;20359;-72
2022/11/07 06:56:24;;;;;;;15.43;4.72;;;10.20;99.90;;;;;;4947404;29;20039;-73
2022/11/07 06:58:50;;;;;;;16.00;3.83;;;10.50;99.90;;;;;;4956402;28;20047;-72
2022/11/07 07:01:16;;;;;;;16.67;5.47;;;10.50;99.90;;;;;;4927492;29;20039;-73
2022/11/07 07:03:42;;;;;;;18.92;6.63;;;10.40;99.90;;;;;;4932935;29;20522;-73
2022/11/07 07:06:13;;;;;;;35.92;9.02;;;10.60;99.90;;;;;;4934120;28;20138;-73
2022/11/07 07:08:39;;;;;;;32.92;7.10;;;10.50;99.90;;;;;;4946051;28;20071;-73
2022/11/07 07:11:07;;;;;;;21.25;6.53;;;10.60;99.90;;;;;;4964440;28;20066;-73
2022/11/07 07:13:33;;;;;;;19.25;6.25;;;10.60;99.90;;;;;;4950617;29;20103;-72
2022/11/07 07:15:59;;;;;;;18.42;6.75;;;10.30;99.90;;;;;;4950384;29;20465;-73
2022/11/07 07:18:25;;;;;;;17.20;6.70;;;10.40;99.90;;;;;;4951826;28;20043;-73
2022/11/07 07:20:54;;;;;;;20.92;7.32;;;10.50;99.90;;;;;;4953510;28;20047;-72
2022/11/07 07:23:20;;;;;;;23.85;8.88;;;10.50;99.90;;;;;;4937664;29;20071;-73
2022/11/07 07:25:46;;;;;;;19.27;7.45;;;10.50;99.90;;;;;;4955757;28;20575;-73
2022/11/07 07:28:12;;;;;;;24.40;7.18;;;10.30;99.90;;;;;;4934791;29;20055;-72
2022/11/07 07:30:38;;;;;;;18.38;7.65;;;10.60;99.90;;;;;;4949414;28;20082;-72
2022/11/07 07:33:04;;;;;;;18.88;8.00;;;10.50;99.90;;;;;;4950707;28;20047;-72
2022/11/07 07:35:30;;;;;;;23.58;7.97;;;10.60;99.90;;;;;;4950350;29;20039;-72
2022/11/07 07:37:55;;;;;;;24.70;9.13;;;10.40;99.90;;;;;;4950964;28;20054;-73
2022/11/07 07:40:21;;;;;;;26.48;7.63;;;10.60;99.90;;;;;;4950852;29;20035;-73
2022/11/07 07:42:47;;;;;;;23.77;8.13;;;10.50;99.90;;;;;;4949868;29;20453;-73
2022/11/07 07:45:13;;;;;;;21.35;8.45;;;10.60;99.90;;;;;;4948841;28;20118;-73
2022/11/07 07:47:40;;;;;;;19.48;7.43;;;10.30;99.90;;;;;;4950756;29;20039;-73
2022/11/07 07:50:07;;;;;;;19.67;7.28;;;10.60;99.90;;;;;;4965012;28;20051;-73
2022/11/07 07:52:33;;;;;;;21.63;8.18;;;10.60;99.90;;;;;;4965418;28;20678;-73
2022/11/07 07:54:59;;;;;;;21.83;7.38;;;10.70;99.90;;;;;;4964659;28;20087;-74
2022/11/07 07:57:24;;;;;;;21.60;8.60;;;10.40;99.90;;;;;;4937547;28;20042;-73
2022/11/07 07:59:50;;;;;;;23.13;7.70;;;10.40;99.90;;;;;;4938104;29;20039;-74
2022/11/07 08:02:16;;;;;;;25.30;9.10;;;10.60;99.90;;;;;;4949064;28;20071;-73
2022/11/07 08:04:42;;;;;;;22.02;8.45;;;10.80;99.90;;;;;;4944843;28;20383;-73
2022/11/07 08:07:08;;;;;;;31.77;7.70;;;10.50;99.90;;;;;;4949303;29;20043;-73
2022/11/07 08:09:35;;;;;;;34.58;9.00;;;10.40;99.90;;;;;;4951334;29;20134;-75
2022/11/07 08:12:09;;;;;;;13.90;7.40;;;10.50;99.90;;;;;;4932889;29;20051;-73
2022/11/07 08:14:35;;;;;;;19.40;7.72;;;10.50;99.90;;;;;;4932087;29;20051;-73
2022/11/07 08:17:01;;;;;;;19.83;8.10;;;10.80;99.90;;;;;;4949554;28;20046;-74
2022/11/07 08:19:28;;;;;;;19.13;7.70;;;10.50;99.90;;;;;;4932662;29;20051;-73
2022/11/07 08:21:54;;;;;;;15.25;6.65;;;10.70;99.90;;;;;;4949904;29;20043;-74
2022/11/07 08:24:20;;;;;;;24.52;8.13;;;10.90;99.90;;;;;;4949462;28;20045;-73
2022/11/07 08:26:45;;;;;;;20.45;7.10;;;10.90;99.90;;;;;;4932494;29;20040;-72
2022/11/07 08:29:11;;;;;;;21.60;7.13;;;10.60;99.90;;;;;;4949674;29;20039;-74
2022/11/07 08:31:37;;;;;;;18.98;7.20;;;10.90;99.90;;;;;;4947223;29;20143;-74
2022/11/07 08:34:02;;;;;;;32.13;7.55;;;10.90;99.90;;;;;;4949229;28;20047;-74
2022/11/07 08:36:28;;;;;;;23.05;6.90;;;10.80;99.90;;;;;;4954418;28;20047;-73
2022/11/07 08:38:54;;;;;;;31.52;7.00;;;11.00;99.90;;;;;;4949475;29;20110;-74
2022/11/07 08:41:20;;;;;;;24.85;7.45;;;10.80;99.90;;;;;;4947071;29;20045;-73
2022/11/07 08:43:47;;;;;;;33.88;8.15;;;10.90;99.90;;;;;;4939939;29;20463;-74
2022/11/07 08:46:13;;;;;;;17.80;7.28;;;11.10;99.90;;;;;;4947227;28;20047;-72
2022/11/07 08:48:39;;;;;;;19.10;7.63;;;11.00;99.90;;;;;;4944261;28;20039;-72
2022/11/07 08:51:05;;;;;;;16.50;5.85;;;11.10;99.90;;;;;;4952125;28;20075;-73
2022/11/07 08:53:31;;;;;;;19.08;6.70;;;10.80;99.90;;;;;;4934381;29;20125;-74
2022/11/07 08:56:15;;;;;;;22.15;8.23;;;11.20;99.90;;;;;;4927480;28;20046;-73
2022/11/07 08:58:40;;;;;;;20.73;6.68;;;11.00;99.90;;;;;;4945591;28;20079;-73
2022/11/07 09:01:07;;;;;;;23.38;7.15;;;11.30;99.90;;;;;;4948223;29;20082;-73
2022/11/07 09:03:37;;;;;;;18.02;5.38;;;11.20;99.90;;;;;;4948530;28;20055;-73
2022/11/07 09:06:04;;;;;;;26.88;5.80;;;11.30;99.90;;;;;;4949162;28;20783;-74
2022/11/07 09:08:31;;;;;;;14.80;4.72;;;11.20;99.90;;;;;;4934656;29;20047;-73
2022/11/07 09:11:01;;;;;;;15.45;5.53;;;11.10;99.90;;;;;;4949146;29;20062;-73
2022/11/07 09:13:27;;;;;;;12.57;5.53;;;11.10;99.90;;;;;;4915314;29;20043;-73
2022/11/07 09:16:01;;;;;;;14.68;6.45;;;11.10;99.90;;;;;;4947935;28;20055;-72
2022/11/07 09:18:27;;;;;;;16.60;6.55;;;11.20;99.90;;;;;;4948693;28;20031;-73
2022/11/07 09:20:53;;;;;;;24.42;5.90;;;11.20;99.90;;;;;;4965159;28;20182;-72
2022/11/07 09:23:19;;;;;;;28.35;6.45;;;11.40;99.90;;;;;;4947106;29;20047;-71
2022/11/07 09:25:45;;;;;;;12.75;4.90;;;11.20;99.90;;;;;;4952343;28;20043;-72
2022/11/07 09:28:11;;;;;;;17.38;5.25;;;11.20;99.90;;;;;;4929236;28;20183;-71
2022/11/07 09:30:37;;;;;;;23.30;7.00;;;11.30;99.90;;;;;;4947461;28;20126;-72
2022/11/07 09:33:02;;;;;;;19.65;7.55;;;11.20;99.90;;;;;;4947691;28;20683;-72
2022/11/07 09:35:28;;;;;;;21.92;5.70;;;11.20;99.90;;;;;;4947418;28;20043;-72
2022/11/07 09:37:53;;;;;;;12.95;4.53;;;11.40;99.90;;;;;;4948172;28;20399;-72
2022/11/07 09:40:42;;;;;;;16.60;5.45;;;11.30;99.90;;;;;;4947219;28;20117;-73
2022/11/07 09:43:11;;;;;;;15.48;4.75;;;11.30;99.90;;;;;;4947454;28;20175;-72
2022/11/07 09:45:50;;;;;;;16.77;4.50;;;11.60;99.90;;;;;;4947040;29;20058;-72
2022/11/07 09:48:22;;;;;;;12.43;5.13;;;11.40;99.90;;;;;;4949228;29;20427;-72
2022/11/07 09:50:50;;;;;;;13.48;4.70;;;11.40;99.90;;;;;;4948655;28;20170;-72
2022/11/07 09:53:32;;;;;;;20.13;5.80;;;11.60;99.90;;;;;;4929712;29;20086;-71
2022/11/07 09:56:05;;;;;;;14.82;6.55;;;11.40;99.90;;;;;;4948141;28;20050;-71
2022/11/07 09:58:51;;;;;;;15.35;5.30;;;11.60;99.90;;;;;;4945050;28;20047;-71
2022/11/07 10:01:19;;;;;;;25.17;6.35;;;11.50;99.90;;;;;;4928325;28;20062;-71
2022/11/07 10:03:45;;;;;;;11.52;4.35;;;11.70;99.90;;;;;;4964906;28;20448;-71
2022/11/07 10:06:32;;;;;;;21.42;5.32;;;11.70;99.90;;;;;;4937173;29;20122;-71
2022/11/07 10:09:13;;;;;;;23.23;5.47;;;11.80;99.90;;;;;;4938669;29;20047;-72
2022/11/07 10:11:50;;;;;;;9.60;5.13;;;12.00;99.90;;;;;;4948444;29;20127;-73
2022/11/07 10:14:39;;;;;;;25.42;6.72;;;11.90;99.90;;;;;;4945811;28;20135;-72
2022/11/07 10:17:19;;;;;;;18.20;5.40;;;11.90;99.90;;;;;;4944528;29;20051;-72
2022/11/07 10:20:03;;;;;;;16.05;3.22;;;12.10;99.90;;;;;;4946841;28;20406;-72
2022/11/07 10:22:38;;;;;;;14.68;4.80;;;11.90;99.90;;;;;;4952761;29;20054;-72
2022/11/07 10:25:13;;;;;;;27.02;5.68;;;11.90;99.90;;;;;;4961502;28;20051;-73
2022/11/07 10:27:39;;;;;;;20.30;5.78;;;11.90;99.90;;;;;;4956893;28;20047;-72
2022/11/07 10:30:18;;;;;;;16.80;4.43;;;12.10;99.90;;;;;;4951947;29;20374;-72
2022/11/07 10:33:17;;;;;;;15.50;4.68;;;12.20;99.90;;;;;;4952413;28;20449;-72
2022/11/07 10:35:49;;;;;;;10.20;4.28;;;12.10;99.90;;;;;;4934868;29;20053;-73
2022/11/07 10:38:27;;;;;;;16.73;4.53;;;12.30;99.90;;;;;;4968886;28;20047;-73
2022/11/07 10:40:53;;;;;;;14.00;4.40;;;12.20;99.90;;;;;;4935115;29;20055;-74
2022/11/07 10:43:35;;;;;;;12.20;4.13;;;12.30;99.90;;;;;;4951835;28;20049;-73
2022/11/07 10:46:02;;;;;;;14.93;5.43;;;12.30;99.90;;;;;;4933939;28;20581;-73
2022/11/07 10:48:29;;;;;;;14.38;4.13;;;12.20;99.90;;;;;;4950110;29;20110;-73
2022/11/07 10:50:56;;;;;;;18.10;5.25;;;12.30;99.90;;;;;;4951844;29;20047;-73
2022/11/07 10:53:23;;;;;;;19.45;4.90;;;12.40;99.90;;;;;;4934277;29;20051;-73
2022/11/07 10:55:51;;;;;;;16.15;3.65;;;12.30;99.90;;;;;;4950783;29;20051;-73
2022/11/07 10:58:19;;;;;;;24.92;5.55;;;12.50;99.90;;;;;;4947560;29;20051;-72
2022/11/07 11:01:06;;;;;;;21.60;4.32;;;12.40;99.90;;;;;;4962792;28;20055;-73
2022/11/07 11:03:44;;;;;;;13.18;3.50;;;12.50;99.90;;;;;;4933468;29;20055;-73
2022/11/07 11:06:09;;;;;;;10.38;3.88;;;12.60;99.90;;;;;;4934486;29;20062;-72
2022/11/07 11:08:37;;;;;;;14.25;4.28;;;12.50;99.90;;;;;;4934613;29;20039;-73
2022/11/07 11:11:21;;;;;;;7.55;2.95;;;12.60;99.90;;;;;;4967050;28;20471;-72
2022/11/07 11:13:47;;;;;;;14.63;4.03;;;12.60;99.90;;;;;;4951892;29;20039;-73
2022/11/07 11:16:14;;;;;;;12.15;4.38;;;12.70;99.90;;;;;;4951208;29;20054;-72
2022/11/07 11:18:51;;;;;;;17.58;4.03;;;12.60;99.90;;;;;;4958310;28;20089;-73
2022/11/07 11:21:17;;;;;;;12.38;4.10;;;12.70;99.90;;;;;;4970737;28;20055;-73
2022/11/07 11:23:45;;;;;;;14.75;4.82;;;12.50;99.90;;;;;;4969334;28;20055;-73
2022/11/07 11:26:19;;;;;;;12.38;3.55;;;12.50;99.90;;;;;;4951322;28;20137;-74
2022/11/07 11:28:49;;;;;;;9.07;4.07;;;12.50;99.90;;;;;;4951077;29;20057;-73
2022/11/07 11:31:19;;;;;;;12.88;4.30;;;12.70;99.90;;;;;;4951136;28;20039;-73
2022/11/07 11:33:57;;;;;;;14.95;3.65;;;12.60;99.90;;;;;;4933469;29;20050;-73
2022/11/07 11:36:32;;;;;;;17.45;4.20;;;12.70;99.90;;;;;;4970111;28;20112;-74
2022/11/07 11:38:59;;;;;;;11.82;5.82;;;12.80;99.90;;;;;;4967939;28;20047;-73
2022/11/07 11:41:34;;;;;;;15.82;3.38;;;12.90;99.90;;;;;;4968582;28;20058;-73
2022/11/07 11:44:16;;;;;;;13.52;4.25;;;13.00;99.90;;;;;;4962778;28;20154;-72
2022/11/07 11:46:53;;;;;;;11.32;4.68;;;13.00;99.90;;;;;;4963849;28;20122;-72
2022/11/07 11:49:44;;;;;;;12.52;3.72;;;13.00;99.90;;;;;;4964796;28;20047;-73
2022/11/07 11:52:21;;;;;;;12.82;3.65;;;13.00;99.90;;;;;;4932369;29;20043;-72
2022/11/07 11:54:49;;;;;;;14.73;3.67;;;13.00;99.90;;;;;;4931137;29;20105;-71
2022/11/07 11:57:39;;;;;;;9.18;3.72;;;13.10;99.90;;;;;;4949877;28;20071;-72
2022/11/07 12:00:18;;;;;;;11.75;2.92;;;13.00;99.90;;;;;;4957506;28;20068;-74
2022/11/07 12:03:11;;;;;;;10.55;3.45;;;13.10;99.90;;;;;;4954393;28;20461;-75
2022/11/07 12:05:55;;;;;;;13.85;3.17;;;13.10;99.90;;;;;;4964552;28;20134;-73
2022/11/07 12:08:51;;;;;;;12.70;4.05;;;13.20;99.90;;;;;;4965740;28;20047;-75
2022/11/07 12:11:48;;;;;;;10.82;3.45;;;13.30;99.90;;;;;;4950558;28;20046;-75
2022/11/07 12:14:32;;;;;;;8.85;3.33;;;13.40;99.90;;;;;;4947935;29;20047;-75
2022/11/07 12:17:24;;;;;;;10.48;2.88;;;13.40;99.90;;;;;;4950609;29;20165;-75
2022/11/07 12:20:12;;;;;;;13.75;3.05;;;13.50;99.90;;;;;;4949476;28;20055;-74
2022/11/07 12:23:07;;;;;;;12.18;4.35;;;13.40;99.90;;;;;;4950261;29;20053;-73
2022/11/07 12:25:50;;;;;;;12.50;2.97;;;13.40;99.90;;;;;;4932520;29;20052;-72
2022/11/07 12:28:39;;;;;;;10.25;4.03;;;13.30;99.90;;;;;;4932655;29;20063;-76
2022/11/07 12:31:37;;;;;;;15.52;3.90;;;13.50;99.90;;;;;;4964723;28;20402;-73
2022/11/07 12:34:18;;;;;;;8.75;3.30;;;13.50;99.90;;;;;;4933135;29;20119;-74
2022/11/07 12:37:02;;;;;;;12.82;3.33;;;13.50;99.90;;;;;;4932772;29;20086;-73
2022/11/07 12:39:37;;;;;;;9.90;2.55;;;13.40;99.90;;;;;;4949094;29;20086;-74
2022/11/07 12:42:29;;;;;;;11.50;2.50;;;13.50;99.90;;;;;;4952909;28;20035;-72
2022/11/07 12:45:13;;;;;;;6.93;2.65;;;13.50;99.90;;;;;;4966188;28;20121;-74
2022/11/07 12:47:46;;;;;;;7.30;2.80;;;13.40;99.90;;;;;;4957329;28;20054;-73
2022/11/07 12:50:22;;;;;;;14.45;3.13;;;13.40;99.90;;;;;;4973901;28;20074;-75
2022/11/07 12:53:18;;;;;;;10.35;2.53;;;13.40;99.90;;;;;;4957239;28;20085;-73
2022/11/07 12:55:48;;;;;;;9.70;3.70;;;13.30;99.90;;;;;;4974997;28;20093;-75
2022/11/07 12:58:22;;;;;;;8.57;3.13;;;13.40;99.90;;;;;;4953704;28;20130;-74
2022/11/07 13:00:49;;;;;;;14.52;4.63;;;13.40;99.90;;;;;;4950870;29;20470;-75
2022/11/07 13:03:30;;;;;;;12.45;3.17;;;13.50;99.90;;;;;;4952343;29;20073;-73
2022/11/07 13:06:14;;;;;;;9.25;3.13;;;13.40;99.90;;;;;;4951832;29;20090;-73
2022/11/07 13:09:06;;;;;;;9.45;4.03;;;13.50;99.90;;;;;;4949942;29;20111;-74